Time;durP1;ratioP1;P1;durP2;ratioP2;P2;SDS_P1;SDS_P2;PMS_P1;PMS_P2;Temp;Humidity;BMP_temperature;BMP_pressure;BME280_temperature;BME280_humidity;BME280_pressure;Samples;Min_cycle;Max_cycle;Signal;HPM_P1;HPM_P2
2022/04/07 00:01:17;;;;;;;4.30;2.78;;;10.50;99.90;;;;;;5052279;28;20459;-84
2022/04/07 00:03:43;;;;;;;4.43;2.60;;;10.50;99.90;;;;;;5052476;28;20480;-84
2022/04/07 00:06:11;;;;;;;4.57;2.70;;;10.50;99.90;;;;;;5051851;28;20457;-84
2022/04/07 00:08:38;;;;;;;3.80;2.60;;;10.60;99.90;;;;;;5067660;28;20750;-84
2022/04/07 00:11:04;;;;;;;4.32;2.60;;;10.50;99.90;;;;;;5052579;28;20394;-84
2022/04/07 00:13:30;;;;;;;4.50;2.90;;;10.40;99.90;;;;;;5051333;28;20399;-84
2022/04/07 00:15:56;;;;;;;5.03;3.20;;;10.40;99.90;;;;;;5067603;28;20375;-84
2022/04/07 00:18:22;;;;;;;3.88;2.85;;;10.30;99.90;;;;;;5051947;28;20388;-85
2022/04/07 00:20:48;;;;;;;5.57;3.40;;;10.30;99.90;;;;;;5067511;28;20380;-84
2022/04/07 00:23:14;;;;;;;5.77;2.90;;;10.20;99.90;;;;;;5052756;28;20398;-83
2022/04/07 00:25:39;;;;;;;4.38;2.80;;;10.30;99.90;;;;;;5051989;28;20400;-83
2022/04/07 00:28:05;;;;;;;4.70;2.80;;;10.10;99.90;;;;;;5052108;28;20395;-83
2022/04/07 00:30:30;;;;;;;6.03;3.25;;;10.10;99.90;;;;;;5067439;28;20470;-83
2022/04/07 00:32:56;;;;;;;7.10;3.00;;;10.00;99.90;;;;;;5052352;28;20379;-84
2022/04/07 00:35:24;;;;;;;5.83;3.13;;;9.90;99.90;;;;;;5051507;28;20376;-82
2022/04/07 00:37:50;;;;;;;4.55;2.80;;;10.10;99.90;;;;;;5045642;28;20455;-83
2022/04/07 00:40:17;;;;;;;4.27;3.20;;;9.90;99.90;;;;;;5052089;28;20487;-83
2022/04/07 00:42:48;;;;;;;4.65;3.17;;;9.70;99.90;;;;;;5051367;28;20486;-83
2022/04/07 00:45:17;;;;;;;7.47;3.45;;;9.60;99.90;;;;;;5050763;28;20835;-84
2022/04/07 00:47:44;;;;;;;4.90;3.00;;;10.10;99.90;;;;;;5050007;28;20802;-83
2022/04/07 00:50:11;;;;;;;5.60;3.20;;;9.50;99.90;;;;;;5051103;28;20375;-83
2022/04/07 00:53:06;;;;;;;5.03;3.40;;;9.50;99.90;;;;;;5050129;28;20519;-84
2022/04/07 00:55:33;;;;;;;6.37;3.20;;;9.50;99.90;;;;;;5046264;28;20392;-83
2022/04/07 00:57:59;;;;;;;4.60;3.10;;;9.80;99.90;;;;;;5050276;28;20570;-83
2022/04/07 01:00:24;;;;;;;4.47;3.23;;;10.10;99.90;;;;;;5051433;28;20372;-82
2022/04/07 01:02:50;;;;;;;7.30;3.60;;;9.90;99.90;;;;;;5051346;28;20862;-84
2022/04/07 01:05:18;;;;;;;5.90;3.72;;;10.10;99.90;;;;;;5050270;28;20388;-83
2022/04/07 01:07:44;;;;;;;4.25;3.40;;;10.00;99.90;;;;;;5051071;28;20386;-83
2022/04/07 01:10:11;;;;;;;5.03;3.30;;;9.80;99.90;;;;;;5051395;28;20383;-83
2022/04/07 01:12:37;;;;;;;4.13;3.47;;;9.70;99.90;;;;;;5051131;28;20395;-83
2022/04/07 01:15:05;;;;;;;4.88;3.55;;;10.00;99.90;;;;;;5050820;28;20371;-84
2022/04/07 01:17:31;;;;;;;6.03;3.40;;;9.60;99.90;;;;;;5051418;28;20467;-83
2022/04/07 01:19:58;;;;;;;5.37;4.20;;;9.50;99.90;;;;;;5051394;28;20380;-83
2022/04/07 01:22:23;;;;;;;6.00;3.92;;;9.40;99.90;;;;;;5049668;28;20801;-82
2022/04/07 01:24:49;;;;;;;7.63;3.97;;;9.40;99.90;;;;;;5051151;28;20408;-82
2022/04/07 01:27:17;;;;;;;5.85;4.20;;;9.30;99.90;;;;;;5050887;28;20901;-83
2022/04/07 01:29:43;;;;;;;6.68;3.97;;;9.30;99.90;;;;;;5049996;28;20410;-84
2022/04/07 01:32:26;;;;;;;5.97;4.18;;;9.10;99.90;;;;;;5050888;28;20462;-83
2022/04/07 01:34:52;;;;;;;8.45;4.78;;;9.10;99.90;;;;;;5049535;28;20746;-82
2022/04/07 01:37:19;;;;;;;8.33;4.80;;;9.00;99.90;;;;;;5051090;28;20368;-83
2022/04/07 01:39:46;;;;;;;8.55;4.70;;;8.90;99.90;;;;;;5049874;28;20391;-83
2022/04/07 01:42:14;;;;;;;6.45;4.40;;;8.90;99.90;;;;;;5034129;28;20399;-84
2022/04/07 01:44:46;;;;;;;9.15;4.97;;;9.00;99.90;;;;;;5051624;28;20746;-83
2022/04/07 01:47:14;;;;;;;6.45;4.78;;;9.00;99.90;;;;;;5052187;28;20408;-83
2022/04/07 01:49:42;;;;;;;8.15;4.93;;;9.10;99.90;;;;;;5052366;28;20376;-83
2022/04/07 01:52:09;;;;;;;6.18;5.00;;;9.10;99.90;;;;;;5049411;28;20530;-84
2022/04/07 01:54:37;;;;;;;7.07;5.13;;;9.10;99.90;;;;;;5048734;28;20367;-84
2022/04/07 01:57:03;;;;;;;6.57;5.22;;;9.20;99.90;;;;;;5050217;28;20426;-83
2022/04/07 01:59:29;;;;;;;6.93;4.35;;;9.30;99.90;;;;;;5050407;28;20408;-82
2022/04/07 02:01:54;;;;;;;7.50;4.68;;;9.30;99.90;;;;;;5052244;28;20379;-84
2022/04/07 02:04:20;;;;;;;7.83;5.17;;;9.40;99.90;;;;;;5052925;28;20376;-84
2022/04/07 02:06:45;;;;;;;7.00;4.97;;;9.40;99.90;;;;;;5053095;28;20414;-83
2022/04/07 02:09:11;;;;;;;6.30;4.93;;;9.40;99.90;;;;;;5051226;28;20380;-83
2022/04/07 02:11:36;;;;;;;6.47;5.10;;;9.30;99.90;;;;;;5052254;28;20781;-83
2022/04/07 02:14:02;;;;;;;6.77;4.90;;;9.20;99.90;;;;;;5051605;28;20396;-83
2022/04/07 02:16:30;;;;;;;6.75;5.25;;;9.20;99.90;;;;;;5050457;28;20425;-82
2022/04/07 02:18:56;;;;;;;8.30;6.10;;;9.10;99.90;;;;;;5051277;28;20375;-82
2022/04/07 02:21:22;;;;;;;6.97;5.18;;;9.10;99.90;;;;;;5050398;28;20376;-85
2022/04/07 02:23:48;;;;;;;6.88;5.10;;;8.90;99.90;;;;;;5050737;28;20387;-83
2022/04/07 02:26:16;;;;;;;8.68;5.20;;;9.00;99.90;;;;;;5049459;28;20500;-83
2022/04/07 02:28:42;;;;;;;8.95;5.55;;;9.10;99.90;;;;;;5049448;28;21020;-84
2022/04/07 02:31:08;;;;;;;7.15;5.70;;;9.30;99.90;;;;;;5048504;28;20378;-84
2022/04/07 02:33:34;;;;;;;9.07;5.75;;;9.10;99.90;;;;;;5050585;28;20418;-84
2022/04/07 02:36:01;;;;;;;7.78;5.50;;;9.00;99.90;;;;;;5049761;28;20443;-83
2022/04/07 02:38:27;;;;;;;9.57;6.00;;;8.90;99.90;;;;;;5037211;28;20383;-84
2022/04/07 02:40:52;;;;;;;8.07;6.50;;;8.90;99.90;;;;;;5053404;28;20378;-84
2022/04/07 02:43:19;;;;;;;7.78;6.18;;;8.80;99.90;;;;;;5053558;28;20410;-85
2022/04/07 02:45:44;;;;;;;8.48;6.63;;;8.80;99.90;;;;;;5054659;28;20515;-84
2022/04/07 02:48:10;;;;;;;9.15;6.43;;;8.70;99.90;;;;;;5055453;28;20949;-83
2022/04/07 02:50:35;;;;;;;9.30;6.97;;;8.60;99.90;;;;;;5054230;28;20374;-83
2022/04/07 02:53:01;;;;;;;10.53;7.07;;;8.60;99.90;;;;;;5054260;28;20487;-83
2022/04/07 02:55:27;;;;;;;8.32;7.18;;;8.50;99.90;;;;;;5052463;28;20387;-84
2022/04/07 02:57:53;;;;;;;8.55;6.55;;;8.60;99.90;;;;;;5053736;28;20400;-84
2022/04/07 03:00:19;;;;;;;8.98;7.00;;;8.60;99.90;;;;;;5054490;28;20386;-84
2022/04/07 03:02:44;;;;;;;9.85;8.02;;;8.60;99.90;;;;;;5052657;28;20384;-83
2022/04/07 03:05:11;;;;;;;10.77;7.47;;;8.50;99.90;;;;;;5054566;28;20402;-84
2022/04/07 03:07:36;;;;;;;8.88;7.10;;;8.40;99.90;;;;;;5052062;28;20415;-84
2022/04/07 03:10:03;;;;;;;9.88;7.63;;;8.40;99.90;;;;;;5053932;28;20411;-83
2022/04/07 03:12:28;;;;;;;10.13;7.60;;;8.40;99.90;;;;;;5052000;28;20852;-83
2022/04/07 03:14:54;;;;;;;10.10;7.90;;;8.30;99.90;;;;;;5052475;28;20490;-84
2022/04/07 03:17:19;;;;;;;10.83;8.00;;;8.40;99.90;;;;;;5053832;28;20368;-84
2022/04/07 03:19:45;;;;;;;9.83;7.80;;;8.40;99.90;;;;;;5053934;28;20463;-85
2022/04/07 03:22:12;;;;;;;9.75;7.63;;;8.40;99.90;;;;;;5053916;28;20781;-83
2022/04/07 03:24:38;;;;;;;9.38;7.95;;;8.40;99.90;;;;;;5053626;28;20375;-84
2022/04/07 03:27:05;;;;;;;7.97;7.13;;;8.40;99.90;;;;;;5054008;28;20840;-83
2022/04/07 03:29:31;;;;;;;9.20;8.03;;;8.50;99.90;;;;;;5053978;28;20909;-83
2022/04/07 03:31:57;;;;;;;8.40;7.43;;;8.60;99.90;;;;;;5054621;28;20467;-84
2022/04/07 03:34:22;;;;;;;9.53;7.53;;;8.60;99.90;;;;;;5051351;28;20460;-84
2022/04/07 03:36:48;;;;;;;11.20;7.80;;;8.60;99.90;;;;;;5052248;28;20526;-84
2022/04/07 03:39:14;;;;;;;9.77;7.23;;;8.70;99.90;;;;;;5053277;28;20889;-84
2022/04/07 03:41:39;;;;;;;9.82;6.95;;;8.70;99.90;;;;;;5054049;28;20816;-83
2022/04/07 03:44:07;;;;;;;9.75;6.80;;;8.80;99.90;;;;;;5053100;28;20854;-83
2022/04/07 03:46:33;;;;;;;8.60;7.60;;;9.00;99.90;;;;;;5052648;28;20451;-84
2022/04/07 03:48:59;;;;;;;8.93;6.80;;;8.90;99.90;;;;;;5054192;28;20371;-83
2022/04/07 03:51:24;;;;;;;8.20;7.00;;;9.00;99.90;;;;;;5052636;28;20426;-84
2022/04/07 03:53:50;;;;;;;8.98;6.95;;;9.00;99.90;;;;;;5053774;28;20897;-83
2022/04/07 03:56:15;;;;;;;10.38;7.32;;;9.00;99.90;;;;;;5052905;28;20419;-84
2022/04/07 03:58:41;;;;;;;9.83;6.90;;;9.10;99.90;;;;;;5051881;28;20833;-84
2022/04/07 04:01:07;;;;;;;10.30;7.03;;;9.00;99.90;;;;;;5053927;28;20372;-83
2022/04/07 04:03:32;;;;;;;10.70;7.30;;;9.10;99.90;;;;;;5053921;28;20372;-84
2022/04/07 04:05:58;;;;;;;10.33;7.20;;;9.10;99.90;;;;;;5053816;28;20727;-84
2022/04/07 04:08:24;;;;;;;8.25;6.40;;;9.10;99.90;;;;;;5054621;28;20364;-84
2022/04/07 04:10:51;;;;;;;9.07;6.72;;;9.30;99.90;;;;;;5053968;28;20916;-85
2022/04/07 04:13:16;;;;;;;10.38;6.93;;;9.20;99.90;;;;;;5053070;28;20368;-84
2022/04/07 04:15:42;;;;;;;10.53;7.30;;;9.20;99.90;;;;;;5052603;28;20944;-84
2022/04/07 04:18:08;;;;;;;8.37;6.47;;;9.30;99.90;;;;;;5052545;28;20380;-84
2022/04/07 04:20:33;;;;;;;6.90;6.20;;;9.30;99.90;;;;;;5053003;28;20814;-84
2022/04/07 04:22:59;;;;;;;8.67;6.77;;;9.50;99.90;;;;;;5051938;28;20380;-85
2022/04/07 04:25:24;;;;;;;7.73;6.27;;;9.50;99.90;;;;;;5057646;28;20532;-83
2022/04/07 04:27:50;;;;;;;10.38;6.75;;;9.40;99.90;;;;;;5056502;28;20391;-83
2022/04/07 04:30:18;;;;;;;7.83;6.53;;;9.40;99.90;;;;;;5052533;28;20741;-85
2022/04/07 04:32:44;;;;;;;8.00;6.47;;;9.40;99.90;;;;;;5051267;28;20882;-85
2022/04/07 04:35:11;;;;;;;9.15;6.55;;;9.50;99.90;;;;;;5052506;28;20467;-84
2022/04/07 04:37:39;;;;;;;7.07;6.30;;;9.60;99.90;;;;;;5051616;28;20397;-84
2022/04/07 04:40:06;;;;;;;6.90;6.20;;;9.60;99.90;;;;;;5052069;28;20389;-84
2022/04/07 04:42:31;;;;;;;7.18;6.43;;;9.60;99.90;;;;;;5052909;28;20391;-84
2022/04/07 04:44:57;;;;;;;7.45;6.38;;;9.50;99.90;;;;;;5051553;28;20486;-84
2022/04/07 04:47:22;;;;;;;8.30;6.13;;;9.70;99.90;;;;;;5051997;28;20949;-83
2022/04/07 04:49:48;;;;;;;9.27;6.60;;;9.60;99.90;;;;;;5050053;28;20494;-84
2022/04/07 04:52:14;;;;;;;9.00;6.30;;;9.70;99.90;;;;;;5052107;28;20878;-83
2022/04/07 04:54:40;;;;;;;7.03;5.95;;;9.70;99.90;;;;;;5052413;28;20384;-85
2022/04/07 04:57:06;;;;;;;7.95;6.20;;;9.70;99.90;;;;;;5050513;28;20766;-83
2022/04/07 04:59:32;;;;;;;7.78;6.18;;;9.70;99.90;;;;;;5051974;28;20395;-83
2022/04/07 05:01:58;;;;;;;7.28;5.90;;;9.80;99.90;;;;;;5051474;28;20407;-83
2022/04/07 05:04:24;;;;;;;7.03;5.30;;;9.80;99.90;;;;;;5043595;28;20824;-84
2022/04/07 05:06:50;;;;;;;7.90;6.03;;;9.80;99.90;;;;;;5041299;28;20741;-84
2022/04/07 05:09:16;;;;;;;7.97;5.78;;;9.80;99.90;;;;;;5040482;28;20424;-84
2022/04/07 05:11:41;;;;;;;6.30;5.38;;;9.80;99.90;;;;;;5040181;28;20755;-84
2022/04/07 05:14:08;;;;;;;5.85;5.10;;;9.80;99.90;;;;;;5045608;28;20388;-84
2022/04/07 05:16:34;;;;;;;6.72;4.95;;;9.80;99.90;;;;;;5043582;28;20389;-84
2022/04/07 05:19:00;;;;;;;8.70;5.03;;;9.90;99.90;;;;;;5042164;28;20815;-84
2022/04/07 05:21:26;;;;;;;7.10;4.97;;;9.90;99.90;;;;;;5041964;28;20380;-84
2022/04/07 05:23:52;;;;;;;6.88;5.10;;;10.00;99.90;;;;;;5043287;28;20448;-84
2022/04/07 05:26:18;;;;;;;6.53;4.68;;;10.00;99.90;;;;;;5041707;28;20975;-85
2022/04/07 05:28:44;;;;;;;5.63;4.45;;;10.00;99.90;;;;;;5039802;28;20498;-84
2022/04/07 05:31:11;;;;;;;5.57;4.57;;;10.00;99.90;;;;;;5041102;28;20501;-85
2022/04/07 05:33:37;;;;;;;6.03;4.57;;;10.10;99.90;;;;;;5042590;28;20371;-84
2022/04/07 05:36:03;;;;;;;6.03;4.30;;;10.20;99.90;;;;;;5040359;28;20384;-85
2022/04/07 05:38:29;;;;;;;6.13;4.53;;;10.20;99.90;;;;;;5038438;28;20861;-85
2022/04/07 05:40:55;;;;;;;6.43;4.25;;;10.30;99.90;;;;;;5041267;28;20394;-84
2022/04/07 05:43:21;;;;;;;6.60;4.47;;;10.30;99.90;;;;;;5038709;28;20389;-86
2022/04/07 05:45:46;;;;;;;4.60;4.20;;;10.40;99.90;;;;;;5039230;28;20550;-84
2022/04/07 05:48:12;;;;;;;4.70;3.97;;;10.40;99.90;;;;;;5041907;28;20447;-84
2022/04/07 05:50:39;;;;;;;5.70;4.20;;;10.50;99.90;;;;;;5038870;28;20377;-84
2022/04/07 05:53:06;;;;;;;6.22;4.00;;;10.60;99.90;;;;;;5041443;28;20376;-85
2022/04/07 05:55:32;;;;;;;7.40;4.15;;;10.70;99.90;;;;;;5041962;28;20441;-83
2022/04/07 05:58:04;;;;;;;4.35;3.88;;;10.60;99.90;;;;;;5037576;28;20404;-83
2022/04/07 06:00:32;;;;;;;4.88;3.83;;;10.80;99.90;;;;;;5048341;28;20869;-84
2022/04/07 06:02:57;;;;;;;6.30;3.80;;;10.80;99.90;;;;;;5048952;28;20763;-84
2022/04/07 06:05:23;;;;;;;5.40;3.87;;;10.70;99.90;;;;;;5038919;28;20387;-83
2022/04/07 06:07:49;;;;;;;6.63;3.90;;;10.80;99.90;;;;;;5042254;28;20473;-83
2022/04/07 06:10:15;;;;;;;5.38;3.75;;;10.80;99.90;;;;;;5040748;28;20386;-84
2022/04/07 06:12:43;;;;;;;5.18;4.15;;;10.90;99.90;;;;;;5044671;28;20744;-85
2022/04/07 06:15:10;;;;;;;5.38;4.22;;;10.90;99.90;;;;;;5045765;28;20421;-84
2022/04/07 06:17:41;;;;;;;4.90;3.53;;;11.10;99.90;;;;;;5042435;28;20381;-85
2022/04/07 06:20:08;;;;;;;4.60;3.70;;;11.20;99.90;;;;;;5042496;28;20423;-85
2022/04/07 06:22:34;;;;;;;4.57;3.67;;;11.30;99.90;;;;;;5043020;28;20380;-85
2022/04/07 06:25:00;;;;;;;5.40;3.63;;;11.30;99.90;;;;;;5042040;28;20880;-84
2022/04/07 06:27:38;;;;;;;4.95;3.58;;;11.30;99.90;;;;;;5046666;28;20411;-84
2022/04/07 06:30:11;;;;;;;5.50;3.67;;;11.40;99.90;;;;;;5049908;28;20373;-84
2022/04/07 06:32:37;;;;;;;4.50;3.45;;;11.50;99.90;;;;;;5045704;28;20397;-83
2022/04/07 06:35:04;;;;;;;4.65;3.35;;;11.50;99.90;;;;;;5047080;28;20376;-84
2022/04/07 06:37:29;;;;;;;4.10;3.60;;;11.60;99.90;;;;;;5048091;28;20366;-83
2022/04/07 06:40:00;;;;;;;4.47;2.87;;;11.60;99.90;;;;;;5044844;28;20511;-83
2022/04/07 06:42:26;;;;;;;4.05;2.83;;;11.70;99.90;;;;;;5044909;28;20387;-83
2022/04/07 06:44:51;;;;;;;3.97;2.93;;;11.70;99.90;;;;;;5048206;28;20382;-83
2022/04/07 06:47:17;;;;;;;4.60;3.00;;;11.70;99.90;;;;;;5045798;28;20420;-83
2022/04/07 06:49:42;;;;;;;3.60;2.50;;;11.80;99.90;;;;;;5047632;28;20414;-83
2022/04/07 06:52:08;;;;;;;2.70;2.20;;;11.80;99.90;;;;;;5050019;28;20390;-83
2022/04/07 06:54:34;;;;;;;3.03;2.25;;;11.90;99.90;;;;;;5043234;28;20887;-83
2022/04/07 06:56:59;;;;;;;3.50;2.40;;;11.90;99.90;;;;;;5044249;28;20452;-84
2022/04/07 06:59:25;;;;;;;3.47;2.75;;;11.90;99.90;;;;;;5045003;28;20379;-84
2022/04/07 07:01:50;;;;;;;2.97;2.50;;;12.00;99.90;;;;;;5049725;28;20518;-82
2022/04/07 07:04:16;;;;;;;5.17;2.77;;;12.10;99.90;;;;;;5045107;28;20407;-84
2022/04/07 07:06:42;;;;;;;2.97;2.50;;;12.10;99.90;;;;;;5044930;28;20397;-83
2022/04/07 07:09:09;;;;;;;4.70;2.83;;;12.10;99.90;;;;;;5047458;28;20376;-85
2022/04/07 07:11:35;;;;;;;2.70;2.42;;;12.30;99.90;;;;;;5046125;28;20402;-84
2022/04/07 07:14:01;;;;;;;3.33;2.60;;;12.20;99.90;;;;;;5049208;28;20395;-84
2022/04/07 07:16:26;;;;;;;4.03;2.73;;;12.40;99.90;;;;;;5049298;28;20832;-84
2022/04/07 07:18:53;;;;;;;2.53;2.30;;;12.50;99.90;;;;;;5047131;28;20386;-83
2022/04/07 07:21:19;;;;;;;2.90;2.70;;;12.80;99.90;;;;;;5047866;28;20372;-84
2022/04/07 07:23:44;;;;;;;4.40;2.92;;;13.10;99.90;;;;;;5044152;28;20457;-82
2022/04/07 07:26:11;;;;;;;3.07;2.50;;;13.10;99.90;;;;;;5044876;28;20391;-84
2022/04/07 07:28:37;;;;;;;4.22;2.80;;;12.90;99.90;;;;;;5047301;28;20392;-84
2022/04/07 07:31:03;;;;;;;4.05;2.60;;;13.10;99.90;;;;;;5043968;28;20381;-83
2022/04/07 07:33:29;;;;;;;2.90;2.38;;;13.20;99.90;;;;;;5047614;28;20958;-82
2022/04/07 07:35:55;;;;;;;3.72;2.20;;;13.30;99.90;;;;;;5046348;28;20395;-83
2022/04/07 07:38:21;;;;;;;4.40;2.30;;;13.80;99.90;;;;;;5047255;28;20408;-83
2022/04/07 07:40:47;;;;;;;2.80;2.22;;;13.20;99.90;;;;;;5045194;28;20392;-83
2022/04/07 07:43:13;;;;;;;4.00;2.38;;;13.20;99.90;;;;;;5046168;28;20379;-83
2022/04/07 07:45:38;;;;;;;2.70;2.10;;;13.30;99.90;;;;;;5049783;28;20963;-82
2022/04/07 07:48:04;;;;;;;3.72;2.45;;;13.30;99.90;;;;;;5048169;28;20406;-83
2022/04/07 07:50:30;;;;;;;4.47;2.20;;;13.20;99.90;;;;;;5043782;28;20724;-83
2022/04/07 07:52:56;;;;;;;2.50;1.88;;;13.40;99.90;;;;;;5045000;28;20389;-84
2022/04/07 07:55:22;;;;;;;2.80;1.60;;;13.60;99.90;;;;;;5045252;28;21008;-84
2022/04/07 07:57:47;;;;;;;2.17;1.33;;;13.60;99.90;;;;;;5047019;28;20476;-83
2022/04/07 08:00:16;;;;;;;2.05;1.38;;;13.70;99.90;;;;;;5048314;28;20425;-83
2022/04/07 08:02:43;;;;;;;1.98;1.45;;;;;;;;;;5044103;28;20445;-82
2022/04/07 08:05:09;;;;;;;2.10;1.50;;;14.20;99.90;;;;;;5042697;28;20383;-83
2022/04/07 08:07:42;;;;;;;2.58;1.85;;;14.40;99.90;;;;;;5045685;28;20420;-86
2022/04/07 08:10:09;;;;;;;2.70;1.45;;;;;;;;;;5042457;28;20732;-83
2022/04/07 08:12:36;;;;;;;3.30;1.65;;;;;;;;;;5043092;28;20364;-83
2022/04/07 08:15:09;;;;;;;2.60;1.50;;;;;;;;;;5043816;28;20384;-83
2022/04/07 08:17:36;;;;;;;2.05;1.60;;;;;;;;;;5046420;28;20448;-82
2022/04/07 08:20:02;;;;;;;3.03;1.50;;;;;;;;;;5044122;28;20483;-83
2022/04/07 08:22:29;;;;;;;2.08;1.65;;;;;;;;;;5043936;28;20385;-83
2022/04/07 08:24:56;;;;;;;2.30;1.52;;;;;;;;;;5042144;28;20762;-83
2022/04/07 08:27:24;;;;;;;1.65;1.50;;;;;;;;;;5045202;28;20417;-81
2022/04/07 08:29:50;;;;;;;1.98;1.55;;;;;;;;;;5044950;28;20377;-83
2022/04/07 08:32:16;;;;;;;3.35;1.48;;;;;;;;;;5043527;28;20936;-83
2022/04/07 08:34:42;;;;;;;2.30;1.30;;;;;;;;;;5045428;28;20403;-83
2022/04/07 08:37:08;;;;;;;2.05;1.20;;;;;;;;;;5042965;28;20427;-84
2022/04/07 08:39:34;;;;;;;1.98;1.40;;;;;;;;;;5045106;28;20372;-82
2022/04/07 08:42:04;;;;;;;3.08;1.45;;;;;;;;;;5045339;28;20957;-85
2022/04/07 08:44:31;;;;;;;1.70;1.30;;;;;;;;;;5043845;28;20385;-84
2022/04/07 08:46:58;;;;;;;2.00;1.50;;;;;;;;;;5044164;28;20408;-83
2022/04/07 08:49:25;;;;;;;2.08;1.30;;;;;;;;;;5045325;28;20380;-84
2022/04/07 08:51:52;;;;;;;2.65;1.42;;;;;;;;;;5042179;28;20394;-84
2022/04/07 08:54:18;;;;;;;1.48;1.30;;;;;;;;;;5045818;28;20388;-83
2022/04/07 08:56:44;;;;;;;1.38;1.10;;;;;;;;;;5044337;28;20373;-84
2022/04/07 08:59:11;;;;;;;2.17;1.20;;;;;;;;;;5041168;28;20418;-84
2022/04/07 09:01:37;;;;;;;1.40;1.30;;;;;;;;;;5041369;28;20374;-83
2022/04/07 09:04:03;;;;;;;1.92;1.27;;;;;;;;;;5041580;28;20938;-84
2022/04/07 09:06:29;;;;;;;1.35;0.95;;;;;;;;;;5040520;28;20839;-83
2022/04/07 09:08:55;;;;;;;1.52;1.10;;;;;;;;;;5043502;28;20427;-83
2022/04/07 09:11:21;;;;;;;1.85;1.25;;;;;;;;;;5041526;28;20389;-83
2022/04/07 09:13:50;;;;;;;2.75;1.08;;;;;;;;;;5044753;28;20368;-82
2022/04/07 09:16:17;;;;;;;3.30;1.20;;;;;;;;;;5045261;28;20867;-84
2022/04/07 09:18:44;;;;;;;1.40;1.13;;;;;;;;;;5045019;28;20390;-82
2022/04/07 09:21:23;;;;;;;1.60;1.00;;;;;;;;;;5044242;28;20466;-83
2022/04/07 09:23:49;;;;;;;1.90;1.20;;;;;;;;;;5039252;28;20374;-82
2022/04/07 09:26:16;;;;;;;1.90;1.30;;;;;;;;;;5041401;28;20421;-84
2022/04/07 09:28:42;;;;;;;2.20;1.00;;;;;;;;;;5044619;28;20420;-82
2022/04/07 09:31:12;;;;;;;3.00;1.10;;;;;;;;;;5040777;28;20919;-82
2022/04/07 09:33:38;;;;;;;2.07;1.00;;;;;;;;;;5042009;28;20371;-83
2022/04/07 09:36:21;;;;;;;2.07;1.00;;;;;;;;;;5038105;28;20382;-83
2022/04/07 09:38:52;;;;;;;1.27;1.08;;;;;;;;;;5039975;28;20468;-83
2022/04/07 09:41:19;;;;;;;2.73;1.20;;;;;;;;;;5041685;28;20374;-83
2022/04/07 09:43:46;;;;;;;1.75;0.90;;;;;;;;;;5040158;28;20459;-83
2022/04/07 09:46:14;;;;;;;2.03;0.90;;;;;;;;;;5041774;28;20496;-83
2022/04/07 09:48:41;;;;;;;1.40;0.95;;;;;;;;;;5043839;28;20405;-83
2022/04/07 09:51:09;;;;;;;2.08;0.90;;;;;;;;;;5043511;28;20469;-84
2022/04/07 09:53:39;;;;;;;2.05;1.00;;;;;;;;;;5042306;28;20443;-83
2022/04/07 09:56:06;;;;;;;3.00;0.93;;;;;;;;;;5038929;28;20385;-82
2022/04/07 09:58:33;;;;;;;1.40;0.80;;;;;;;;;;5042550;28;20381;-82
2022/04/07 10:01:02;;;;;;;1.05;0.95;;;;;;;;;;5044432;28;20395;-82
2022/04/07 10:03:30;;;;;;;1.98;0.70;;;;;;;;;;5038284;28;20500;-83
2022/04/07 10:05:57;;;;;;;2.03;1.10;;;;;;;;;;5042234;28;20464;-83
2022/04/07 10:08:23;;;;;;;1.98;1.10;;;;;;;;;;5038569;28;20381;-83
2022/04/07 10:10:49;;;;;;;1.23;0.90;;;;;;;;;;5040699;28;20408;-84
2022/04/07 10:13:15;;;;;;;3.30;1.15;;;;;;;;;;5043197;28;20437;-84
2022/04/07 10:15:42;;;;;;;2.13;1.00;;;;;;;;;;5042824;28;20387;-82
2022/04/07 10:18:09;;;;;;;2.53;0.93;;;;;;;;;;5038726;28;20389;-83
2022/04/07 10:20:40;;;;;;;1.10;1.00;;;;;;;;;;5046123;28;20392;-83
2022/04/07 10:23:24;;;;;;;1.10;0.90;;;;;;;;;;5042033;28;20418;-83
2022/04/07 10:25:51;;;;;;;2.00;1.00;;;;;;;;;;5040986;28;20409;-83
2022/04/07 10:28:19;;;;;;;1.40;0.90;;;;;;;;;;5040486;28;20394;-83
2022/04/07 10:30:48;;;;;;;2.03;0.90;;;;;;;;;;5042032;28;20395;-84
2022/04/07 10:33:37;;;;;;;2.25;0.90;;;;;;;;;;5038547;28;20381;-82
2022/04/07 10:36:29;;;;;;;2.20;1.02;;;;;;;;;;5038108;28;21158;-83
2022/04/07 10:38:57;;;;;;;2.50;1.08;;;;;;;;;;5037364;28;20416;-83
2022/04/07 10:41:41;;;;;;;1.70;0.98;;;;;;;;;;5041072;28;20440;-83
2022/04/07 10:44:20;;;;;;;1.60;0.98;;;;;;;;;;5039523;28;20401;-82
2022/04/07 10:46:46;;;;;;;1.75;1.08;;;;;;;;;;5038823;28;20497;-84
2022/04/07 10:49:13;;;;;;;1.20;0.80;;;;;;;;;;5044471;28;20392;-83
2022/04/07 10:51:48;;;;;;;1.15;1.05;;;;;;;;;;5038670;28;20368;-82
2022/04/07 10:54:14;;;;;;;1.52;0.95;;;;;;;;;;5045973;28;20401;-83
2022/04/07 10:56:45;;;;;;;1.83;0.80;;;;;;;;;;5040549;28;20387;-82
2022/04/07 10:59:13;;;;;;;1.30;1.07;;;;;;;;;;5042276;28;20389;-82
2022/04/07 11:01:42;;;;;;;1.40;1.15;;;;;;;;;;5041942;28;20818;-84
2022/04/07 11:04:18;;;;;;;1.90;0.90;;;;;;;;;;5045263;28;20439;-84
2022/04/07 11:07:03;;;;;;;2.47;1.50;;;;;;;;;;5044475;28;20413;-83
2022/04/07 11:09:47;;;;;;;1.98;0.90;;;;;;;;;;5042938;28;20370;-81
2022/04/07 11:12:18;;;;;;;0.95;0.70;;;;;;;;;;5042792;28;20373;-81
2022/04/07 11:14:45;;;;;;;1.17;0.90;;;;;;;;;;5042418;28;20787;-80
2022/04/07 11:17:14;;;;;;;2.13;0.90;;;;;;;;;;5044524;28;20501;-82
2022/04/07 11:19:59;;;;;;;1.73;0.90;;;;;;;;;;5048284;28;20411;-83
2022/04/07 11:22:44;;;;;;;1.80;1.00;;;;;;;;;;5044324;28;20403;-82
2022/04/07 11:25:10;;;;;;;2.22;1.10;;;;;;;;;;5043550;28;20373;-83
2022/04/07 11:27:39;;;;;;;2.20;1.10;;;;;;;;;;5041664;28;20400;-83
2022/04/07 11:30:06;;;;;;;1.83;1.30;;;;;;;;;;5042785;28;20380;-83
2022/04/07 11:32:32;;;;;;;2.58;0.93;;;;;;;;;;5046313;28;20796;-82
2022/04/07 11:35:11;;;;;;;2.20;1.23;;;;;;;;;;5042600;28;20393;-83
2022/04/07 11:37:43;;;;;;;1.50;1.07;;;;;;;;;;5040256;28;20377;-83
2022/04/07 11:40:11;;;;;;;2.42;0.90;;;;;;;;;;5040458;28;20381;-82
2022/04/07 11:42:38;;;;;;;1.88;0.95;;;;;;;;;;5053158;28;20403;-82
2022/04/07 11:45:04;;;;;;;2.92;1.05;;;;;;;;;;5079330;28;20388;-83
2022/04/07 11:47:33;;;;;;;3.65;1.00;;;;;;;;;;5053409;28;20483;-82
2022/04/07 11:50:00;;;;;;;1.27;0.90;;;;;;;;;;5045158;28;20878;-82
2022/04/07 11:52:30;;;;;;;1.15;1.00;;;;;;;;;;5044859;28;20416;-81
2022/04/07 11:54:57;;;;;;;3.47;1.42;;;;;;;;;;5043325;28;20455;-83
2022/04/07 11:57:24;;;;;;;3.17;1.00;;;;;;;;;;5041545;28;20374;-81
2022/04/07 11:59:50;;;;;;;1.30;0.88;;;;;;;;;;5045029;28;20373;-82
2022/04/07 12:02:23;;;;;;;1.17;0.70;;;;;;;;;;5047353;28;20420;-82
2022/04/07 12:05:00;;;;;;;1.25;0.88;;;;;;;;;;5041912;28;20392;-82
2022/04/07 12:07:27;;;;;;;1.70;1.08;;;;;;;;;;5045388;28;20409;-82
2022/04/07 12:09:56;;;;;;;0.85;0.68;;;;;;;;;;5041601;28;20862;-82
2022/04/07 12:12:22;;;;;;;1.83;1.00;;;;;;;;;;5044670;28;20802;-82
2022/04/07 12:14:48;;;;;;;1.67;0.90;;;;;;;;;;5041617;28;20365;-83
2022/04/07 12:17:14;;;;;;;1.45;0.82;;;;;;;;;;5044720;28;20464;-82
2022/04/07 12:19:46;;;;;;;1.20;0.73;;;;;;;;;;5041404;28;20803;-82
2022/04/07 12:22:13;;;;;;;1.88;0.80;;;;;;;;;;5042847;28;20480;-83
2022/04/07 12:24:40;;;;;;;2.92;0.82;;;;;;;;;;5040783;28;20944;-82
2022/04/07 12:27:08;;;;;;;1.77;0.77;;;;;;;;;;5042677;28;20435;-82
2022/04/07 12:29:34;;;;;;;1.23;0.82;;;;;;;;;;5042617;28;20391;-82
2022/04/07 12:32:01;;;;;;;1.63;0.80;;;;;;;;;;5042626;28;20892;-82
2022/04/07 12:34:27;;;;;;;1.17;0.90;;;;;;;;;;5039304;28;20393;-83
2022/04/07 12:36:54;;;;;;;1.60;0.80;;;;;;;;;;5040169;28;20785;-82
2022/04/07 12:39:20;;;;;;;1.50;0.80;;;;;;;;;;5041869;28;20410;-83
2022/04/07 12:41:49;;;;;;;2.80;0.80;;;;;;;;;;5046670;28;20412;-83
2022/04/07 12:44:19;;;;;;;4.27;0.83;;;;;;;;;;5040209;28;20451;-82
2022/04/07 12:46:58;;;;;;;1.30;0.90;;;;;;;;;;5040237;28;20413;-82
2022/04/07 12:49:28;;;;;;;1.67;0.82;;;;;;;;;;5039402;28;20374;-83
2022/04/07 12:52:01;;;;;;;0.98;0.60;;;;;;;;;;5041747;28;20466;-82
2022/04/07 12:54:27;;;;;;;0.80;0.63;;;;;;;;;;5041474;28;20364;-82
2022/04/07 12:57:06;;;;;;;1.30;0.70;;;;;;;;;;5041437;28;20361;-82
2022/04/07 12:59:32;;;;;;;0.70;0.65;;;;;;;;;;5040847;28;20511;-83
2022/04/07 13:01:58;;;;;;;1.80;0.80;;;;;;;;;;5039704;28;20372;-82
2022/04/07 13:04:44;;;;;;;1.15;0.75;;;;;;;;;;5042202;28;20418;-82
2022/04/07 13:07:10;;;;;;;1.00;0.63;;;;;;;;;;5041389;28;20413;-82
2022/04/07 13:09:37;;;;;;;1.75;0.80;;;;;;;;;;5044704;28;20376;-82
2022/04/07 13:12:03;;;;;;;1.50;0.68;;;;;;;;;;5042540;28;20373;-82
2022/04/07 13:14:29;;;;;;;0.95;0.60;;;;;;;;;;5042861;28;20378;-82
2022/04/07 13:16:55;;;;;;;2.42;0.63;;;;;;;;;;5040788;28;20726;-83
2022/04/07 13:19:21;;;;;;;0.65;0.60;;;;;;;;;;5040239;28;20381;-83
2022/04/07 13:21:47;;;;;;;0.77;0.50;;;;;;;;;;5041160;28;20389;-83
2022/04/07 13:24:13;;;;;;;1.42;0.50;;;;;;;;;;5040532;28;20897;-83
2022/04/07 13:26:44;;;;;;;2.13;0.80;;;;;;;;;;5041103;28;20401;-83
2022/04/07 13:29:10;;;;;;;0.80;0.60;;;;;;;;;;5040259;28;20405;-82
2022/04/07 13:31:36;;;;;;;1.50;0.60;;;;;;;;;;5040293;28;20367;-82
2022/04/07 13:34:04;;;;;;;2.80;0.80;;;;;;;;;;5042473;28;20746;-83